Latest Weather Observations for Trangie

IDN60801

Issued at 11:02 am EST Sunday 19 April 2015 (issued every 30 minutes, with the page automatically refreshed every 10 minutes)

About weather observations | Map of weather stations | Latest weather observations for NSW | Other Formats
Station Details ID: 051049 Name: TRANGIE RESEARCH STATION AWS Lat: -31.99 Lon: 147.95 Height: 215.0 m
Data from the previous 72 hours. | See also: Recent months at Trangie
Date/Time
EST
Temp
°C
App
Temp
°C
Dew
Point
Rel
Hum
%
Delta-T
°C
Wind Press
QNH
hPa
Press
MSL
hPa
Rain
since 9 am
mm
Dir
 
Spd
km/h
Gust
km/h
Spd
kts
Gust
kts
19/10:30am 16.7 12.4 12.0 74 2.6 SSW 26 37 14 20 1022.7 1022.3 0.0
19/10:00am 16.6 12.9 12.6 77 2.2 SSW 24 33 13 18 1022.3 1021.9 0.0
19/09:30am 16.7 14.3 12.8 78 2.2 SSW 17 24 9 13 1022.2 1021.8 0.0
19/09:00am 16.5 14.1 12.8 79 2.1 SSW 17 20 9 11 1021.9 1021.5 5.6
19/08:30am 15.3 12.7 13.1 87 1.2 SSW 19 24 10 13 1021.9 1021.5 5.6
19/08:00am 15.0 13.2 13.4 90 0.9 SSW 15 20 8 11 1021.4 1020.9 5.6
19/07:30am 14.7 13.2 13.1 90 0.9 SSW 13 17 7 9 1020.8 1020.3 5.6
19/07:00am 14.6 12.7 13.0 90 0.9 SSW 15 20 8 11 1020.5 1020.0 5.6
19/06:30am 14.7 12.8 12.9 89 1.0 SSW 15 19 8 10 1019.9 1019.4 5.6
19/06:00am 14.9 12.9 12.8 87 1.2 SSW 15 22 8 12 1019.6 1019.1 5.6
19/05:30am 15.2 12.4 12.7 85 1.4 SSW 19 26 10 14 1019.1 1018.6 5.6
19/05:00am 15.4 13.0 12.7 84 1.5 SSW 17 28 9 15 1018.5 1018.0 5.6
19/04:30am 15.9 13.4 13.6 86 1.3 SSW 19 26 10 14 1018.3 1017.8 5.6
19/04:00am 16.2 13.8 13.9 86 1.3 SSW 19 28 10 15 1018.0 1017.6 5.6
19/03:30am 16.3 14.9 15.5 95 0.5 SSW 17 22 9 12 1017.9 1017.5 5.6
19/03:00am 16.4 13.6 15.4 94 0.6 SSW 24 33 13 18 1017.5 1017.0 5.6
19/02:48am 17.0 14.8 16.0 94 0.6 WSW 22 35 12 19 1017.6 1017.1 5.6
19/02:30am 17.1 16.7 16.3 95 0.5 W 13 15 7 8 1017.6 1017.1 5.6
19/02:00am 17.3 17.7 16.2 93 0.7 W 9 15 5 8 1017.8 1017.3 5.6
19/01:30am 17.3 17.2 16.0 92 0.8 W 11 13 6 7 1018.0 1017.6 5.6
19/01:00am 17.3 16.8 15.8 91 0.9 W 13 17 7 9 1018.3 1017.8 5.6
19/12:30am 17.3 17.5 15.8 91 0.9 W 9 13 5 7 1018.2 1017.7 5.6
19/12:00am 17.4 17.6 15.7 90 1.0 W 9 13 5 7 1018.4 1017.9 5.6
 
Date/Time
EST
Temp
°C
App
Temp
°C
Dew
Point
Rel
Hum
%
Delta-T
°C
Wind Press
QNH
hPa
Press
MSL
hPa
Rain
since 9 am
mm
Dir
 
Spd
km/h
Gust
km/h
Spd
kts
Gust
kts
18/11:30pm 17.4 17.8 15.4 88 1.2 WNW 7 9 4 5 1018.5 1018.0 5.6
18/11:00pm 17.5 16.8 15.3 87 1.3 W 13 17 7 9 1018.4 1017.9 5.6
18/10:30pm 17.5 17.1 15.1 86 1.4 W 11 15 6 8 1018.4 1017.9 5.6
18/10:00pm 17.7 17.3 15.1 85 1.5 W 11 19 6 10 1018.4 1017.9 5.6
18/09:30pm 18.0 17.2 15.1 83 1.7 WNW 13 19 7 10 1018.7 1018.2 5.6
18/09:00pm 18.2 17.4 15.1 82 1.8 WNW 13 20 7 11 1018.4 1017.9 5.6
18/08:30pm 18.3 18.0 15.4 83 1.7 WNW 11 13 6 7 1017.6 1017.1 5.6
18/08:00pm 18.4 18.6 15.8 85 1.5 W 9 13 5 7 1017.6 1017.1 5.6
18/07:30pm 18.4 19.3 16.7 90 1.0 WNW 7 11 4 6 1017.4 1016.9 5.6
18/07:00pm 18.5 19.4 16.7 89 1.1 NW 7 11 4 6 1017.1 1016.6 5.6
18/06:30pm 18.6 19.2 16.8 89 1.1 NW 9 13 5 7 1016.8 1016.3 5.6
18/06:00pm 18.6 18.7 16.4 87 1.3 NW 11 15 6 8 1016.5 1016.0 5.4
18/05:30pm 18.8 18.9 15.5 81 2.0 W 9 17 5 9 1015.7 1015.2 5.0
18/05:00pm 19.6 20.6 17.7 89 1.2 WNW 9 13 5 7 1015.8 1015.3 4.8
18/04:30pm 19.8 19.8 18.1 90 1.1 NNW 15 20 8 11 1015.6 1015.1 3.6
18/04:00pm 19.1 19.3 17.6 91 0.9 NW 13 15 7 8 1015.4 1014.9 3.0
18/03:35pm 19.7 16.7 16.9 84 1.7 NW 28 50 15 27 1014.9 1014.4 0.4
18/03:30pm 21.8 19.4 16.5 72 3.2 N 24 50 13 27 1015.1 1014.6 0.0
18/03:10pm 22.8 19.5 16.1 66 4.1 N 28 52 15 28 1014.1 1013.6 0.0
18/03:00pm 24.6 22.1 16.1 59 5.2 N 24 39 13 21 1014.0 1013.5 0.0
18/02:30pm 25.2 23.1 16.1 57 5.6 NNW 22 33 12 18 1014.2 1013.7 0.0
18/02:00pm 26.7 22.7 15.1 49 7.1 N 30 41 16 22 1014.5 1014.0 0.0
18/01:30pm 26.7 22.6 14.8 48 7.2 N 30 39 16 21 1014.9 1014.4 0.0
18/01:00pm 26.9 23.5 15.9 51 6.8 N 28 39 15 21 1015.3 1014.8 0.0
18/12:37pm 26.5 22.9 15.2 49 6.9 N 28 46 15 25 1015.7 1015.2 0.0
18/12:30pm 26.1 21.7 15.2 51 6.6 NNW 32 46 17 25 1015.8 1015.3 0.0
18/12:00pm 25.6 21.9 15.0 52 6.4 N 28 46 15 25 1016.4 1015.9 0.0
18/11:43am 25.4 21.6 14.8 52 6.4 N 28 48 15 26 1016.8 1016.3 0.0
18/11:30am 25.5 22.0 15.5 54 6.1 N 28 44 15 24 1016.9 1016.4 0.0
18/11:00am 24.1 20.4 15.1 57 5.4 N 28 43 15 23 1017.5 1017.0 0.0
18/10:30am 23.8 21.4 15.3 59 5.1 N 22 32 12 17 1017.9 1017.5 0.0
18/10:00am 23.5 19.9 15.3 60 4.9 N 28 39 15 21 1018.4 1017.9 0.0
18/09:40am 23.4 19.4 15.2 60 4.9 N 30 50 16 27 1018.5 1018.0 0.0
18/09:30am 23.2 19.2 15.3 61 4.8 N 30 43 16 23 1018.5 1018.0 0.0
18/09:00am 22.5 19.3 15.4 64 4.3 N 26 41 14 22 1018.5 1018.0 0.0
18/08:30am 21.9 18.7 15.3 66 4.0 N 26 39 14 21 1018.3 1017.8 0.0
18/08:00am 21.5 18.9 14.9 66 3.9 N 22 35 12 19 1018.0 1017.6 0.0
18/07:30am 21.1 18.0 14.5 66 3.9 NNE 24 35 13 19 1017.8 1017.3 0.0
18/07:00am 21.0 18.2 14.4 66 3.9 NNE 22 37 12 20 1017.4 1016.9 0.0
18/06:30am 20.9 17.9 13.8 64 4.1 NNE 22 33 12 18 1017.4 1016.9 0.0
18/06:00am 21.0 17.9 13.4 62 4.4 NNE 22 35 12 19 1017.1 1016.6 0.0
18/05:30am 21.1 18.0 13.3 61 4.5 NNE 22 35 12 19 1016.9 1016.4 0.0
18/05:00am 21.4 18.2 13.1 59 4.8 NNE 22 35 12 19 1017.1 1016.6 0.0
18/04:30am 21.7 18.5 13.1 58 5.0 NNE 22 41 12 22 1017.0 1016.5 0.0
18/04:00am 22.0 19.2 13.1 57 5.1 NNE 20 30 11 16 1017.0 1016.5 0.0
18/03:30am 22.5 19.7 13.3 56 5.4 NNE 20 35 11 19 1016.9 1016.4 0.0
18/03:00am 22.2 19.9 13.0 56 5.3 NNE 17 24 9 13 1017.0 1016.5 0.0
18/02:30am 22.5 20.5 12.7 54 5.6 NNE 15 24 8 13 1017.2 1016.7 0.0
18/02:00am 22.2 20.7 13.0 56 5.3 NNE 13 19 7 10 1017.3 1016.8 0.0
18/01:30am 22.5 20.9 12.7 54 5.6 NNE 13 19 7 10 1017.6 1017.1 0.0
18/01:00am 23.4 21.0 12.7 51 6.2 NNE 17 26 9 14 1017.9 1017.5 0.0
18/12:30am 23.2 21.0 13.4 54 5.7 NNE 17 26 9 14 1017.7 1017.2 0.0
18/12:00am 23.1 21.4 13.6 55 5.6 NNE 15 26 8 14 1017.7 1017.2 0.0
 
Date/Time
EST
Temp
°C
App
Temp
°C
Dew
Point
Rel
Hum
%
Delta-T
°C
Wind Press
QNH
hPa
Press
MSL
hPa
Rain
since 9 am
mm
Dir
 
Spd
km/h
Gust
km/h
Spd
kts
Gust
kts
17/11:30pm 23.4 21.2 13.3 53 5.9 NNE 17 24 9 13 1017.7 1017.2 0.0
17/11:00pm 23.4 21.6 13.3 53 5.9 NE 15 22 8 12 1018.2 1017.7 0.0
17/10:30pm 24.0 22.5 13.2 50 6.3 NNE 13 20 7 11 1018.7 1018.2 0.0
17/10:00pm 24.3 22.7 12.9 49 6.6 NNE 13 19 7 10 1018.7 1018.2 0.0
17/09:30pm 24.4 22.9 13.0 49 6.7 NNE 13 20 7 11 1018.8 1018.3 0.0
17/09:00pm 24.6 22.9 12.5 46 7.0 NE 13 20 7 11 1018.4 1017.9 0.0
17/08:30pm 24.7 23.4 12.6 47 7.0 NNE 11 17 6 9 1018.3 1017.8 0.0
17/08:00pm 24.6 23.7 12.5 46 7.0 NNE 9 13 5 7 1018.3 1017.8 0.0
17/07:30pm 25.1 24.2 12.7 46 7.2 NNE 9 15 5 8 1018.2 1017.7 0.0
17/07:00pm 25.7 24.5 12.9 45 7.5 NNE 11 15 6 8 1017.7 1017.2 0.0
17/06:30pm 26.5 25.2 12.5 41 8.2 NE 11 15 6 8 1017.5 1017.0 0.0
17/06:00pm 26.9 25.5 12.2 40 8.6 NNE 11 15 6 8 1017.3 1016.8 0.0
17/05:30pm 27.4 25.9 11.8 38 9.1 NNE 11 15 6 8 1017.1 1016.6 0.0
17/05:00pm 28.4 26.4 11.5 35 9.8 NNE 13 19 7 10 1017.1 1016.6 0.0
17/04:30pm 28.7 26.4 11.7 35 9.9 NNE 15 24 8 13 1017.2 1016.7 0.0
17/04:00pm 29.2 26.2 10.8 32 10.6 N 17 28 9 15 1017.2 1016.7 0.0
17/03:30pm 28.9 26.5 11.5 34 10.1 NNE 15 26 8 14 1017.4 1016.9 0.0
17/03:00pm 29.0 26.4 10.6 32 10.5 N 15 20 8 11 1017.7 1017.2 0.0
17/02:30pm 28.9 26.1 11.5 34 10.1 N 17 24 9 13 1018.2 1017.7 0.0
17/02:00pm 29.2 26.9 11.7 34 10.2 N 15 24 8 13 1018.5 1018.0 0.0
17/01:30pm 29.5 26.9 13.3 37 9.7 N 19 28 10 15 1018.8 1018.3 0.0
17/01:00pm 28.1 26.3 13.2 39 8.9 N 15 24 8 13 1019.5 1019.0 0.0
17/12:30pm 27.8 26.6 14.1 43 8.3 NNE 13 17 7 9 1020.2 1019.7 0.0
17/12:00pm 26.9 27.4 15.0 48 7.2 NE 6 11 3 6 1021.1 1020.6 0.0
17/11:30am 25.9 26.1 14.7 50 6.8 NE 7 11 4 6 1021.9 1021.5 0.0
17/11:00am 25.2 25.6 15.2 54 6.1 ENE 7 13 4 7 1022.3 1021.9 0.0
17/10:30am 24.2 24.5 14.9 56 5.6 E 7 13 4 7 1022.8 1022.4 0.0
17/10:00am 23.0 22.6 15.3 62 4.6 SE 11 17 6 9 1023.3 1022.8 0.0
17/09:30am 22.0 21.2 15.1 65 4.1 SSE 13 20 7 11 1023.6 1023.1 0.0
17/09:00am 21.5 20.3 15.1 67 3.8 SSE 15 20 8 11 1023.5 1023.0 0.2
17/08:30am 20.6 19.2 14.5 68 3.6 SSE 15 22 8 12 1023.5 1023.0 0.2
17/08:00am 19.8 18.3 14.2 70 3.3 S 15 20 8 11 1023.4 1022.9 0.2
17/07:30am 19.8 20.8 16.8 83 1.8 S 7 11 4 6 1022.7 1022.3 0.2
17/07:00am 19.4 20.6 16.8 85 1.6 SE 6 7 3 4 1022.3 1021.9 0.2
17/06:30am 19.1 20.3 16.9 87 1.3 SE 6 7 3 4 1022.0 1021.6 0.2
17/06:00am 19.0 20.0 16.8 87 1.3 SE 7 9 4 5 1021.6 1021.1 0.2
17/05:30am 19.3 20.8 16.7 85 1.6 SE 4 9 2 5 1021.5 1021.0 0.2
17/05:00am 19.2 20.5 17.2 88 1.2 SSE 6 9 3 5 1021.3 1020.8 0.2
17/04:30am 19.0 20.8 17.3 90 1.0 S 4 7 2 4 1021.4 1020.9 0.2
17/04:00am 19.4 20.8 17.4 88 1.2 SSW 6 13 3 7 1021.4 1020.9 0.2
17/03:30am 18.9 21.2 16.7 87 1.3 CALM 0 0 0 0 1020.9 1020.4 0.2
17/03:00am 19.4 21.7 16.8 85 1.6 CALM 0 0 0 0 1021.0 1020.5 0.2
17/02:30am 19.9 20.8 16.7 82 2.0 ENE 7 11 4 6 1021.0 1020.5 0.2
17/02:00am 20.3 21.5 16.9 81 2.1 E 6 7 3 4 1021.2 1020.7 0.2
17/01:30am 20.5 21.4 16.7 79 2.3 SSE 7 11 4 6 1021.5 1021.0 0.2
17/01:00am 20.9 21.6 17.1 79 2.3 SSE 9 17 5 9 1021.7 1021.2 0.2
17/12:30am 20.7 20.8 17.5 82 2.0 SSE 13 19 7 10 1022.0 1021.6 0.2
17/12:00am 20.8 21.3 17.4 81 2.1 SE 11 17 6 9 1022.4 1022.0 0.0
 
Date/Time
EST
Temp
°C
App
Temp
°C
Dew
Point
Rel
Hum
%
Delta-T
°C
Wind Press
QNH
hPa
Press
MSL
hPa
Rain
since 9 am
mm
Dir
 
Spd
km/h
Gust
km/h
Spd
kts
Gust
kts
16/11:30pm 21.5 20.7 17.1 76 2.7 S 17 28 9 15 1022.7 1022.3 0.0
16/11:00pm 23.3 21.7 16.4 65 4.2 SSW 20 28 11 15 1022.6 1022.2 0.0
16/10:30pm 23.6 22.1 16.4 64 4.4 SW 19 26 10 14 1022.6 1022.2 0.0
16/10:00pm 22.9 23.6 17.1 70 3.6 S 9 11 5 6 1022.6 1022.2 0.0
16/09:30pm 22.6 25.0 17.1 71 3.4 CALM 0 6 0 3 1022.5 1022.1 0.0
16/09:00pm 24.0 24.7 16.0 61 4.9 W 7 11 4 6 1022.8 1022.4 0.0
16/08:30pm 25.5 23.6 14.3 50 6.7 W 17 28 9 15 1022.4 1022.0 0.0
16/08:00pm 26.9 25.6 13.6 44 7.9 WNW 13 20 7 11 1021.8 1021.3 0.0
16/07:30pm 27.0 26.7 13.4 43 8.1 NNE 7 9 4 5 1021.0 1020.5 0.0
16/07:00pm 27.0 26.5 12.6 41 8.4 NNE 7 11 4 6 1020.7 1020.2 0.0
16/06:30pm 27.6 26.8 11.6 37 9.3 NNE 7 9 4 5 1020.4 1019.9 0.0
16/06:00pm 27.8 26.9 11.4 36 9.5 N 7 9 4 5 1020.1 1019.6 0.0
16/05:30pm 28.8 27.4 10.9 33 10.3 NNW 9 13 5 7 1020.0 1019.5 0.0
16/05:00pm 30.2 28.7 10.7 30 11.2 NNW 9 15 5 8 1019.9 1019.4 0.0
16/04:30pm 31.5 29.3 10.8 28 12.0 NW 13 20 7 11 1019.9 1019.4 0.0
16/04:00pm 31.5 29.3 10.8 28 12.0 NNW 13 26 7 14 1020.0 1019.5 0.0
16/03:30pm 31.0 29.2 10.9 29 11.7 NNW 11 17 6 9 1020.3 1019.8 0.0
16/03:00pm 32.0 29.9 11.2 28 12.2 NW 13 20 7 11 1020.6 1020.1 0.0
16/02:30pm 31.7 30.2 13.0 32 11.3 NNW 13 22 7 12 1020.8 1020.3 0.0
16/02:00pm 31.7 29.5 12.0 30 11.7 NW 15 20 8 11 1021.0 1020.5 0.0
16/01:30pm 30.6 29.2 13.4 35 10.4 NW 13 22 7 12 1021.4 1020.9 0.0
16/01:00pm 30.7 28.3 12.6 33 10.8 NNW 17 26 9 14 1021.9 1021.5 0.0
16/12:30pm 30.2 27.3 13.0 34 10.3 NNW 20 30 11 16 1022.6 1022.2 0.0
16/12:00pm 29.1 26.3 13.3 37 9.4 NNW 20 32 11 17 1023.2 1022.7 0.0
16/11:30am 29.4 26.4 13.6 38 9.5 NW 22 32 12 17 1024.0 1023.5 0.0

Other Formats:

Comma delimited format used in spreadsheet applications
http://www.bom.gov.au/fwo/IDN60801/IDN60801.95710.axf

JavaScript Object Notation format (JSON) in row-major order
http://www.bom.gov.au/fwo/IDN60801/IDN60801.95710.json